Time;durP1;ratioP1;P1;durP2;ratioP2;P2;SDS_P1;SDS_P2;PMS_P1;PMS_P2;Temp;Humidity;BMP_temperature;BMP_pressure;BME280_temperature;BME280_humidity;BME280_pressure;Samples;Min_cycle;Max_cycle;Signal;HPM_P1;HPM_P2
2022/08/28 00:00:40;;;;;;;;;;;;;;;;;;5042082;28;20008;-80
2022/08/28 00:03:05;;;;;;;;;;;;;;;;;;5044047;28;20310;-80
2022/08/28 00:05:30;;;;;;;;;;;;;;;;;;5041526;28;19959;-80
2022/08/28 00:07:56;;;;;;;;;;;;;;;;;;5043268;28;19909;-80
2022/08/28 00:10:21;;;;;;;;;;;;;;;;;;5047644;28;19992;-80
2022/08/28 00:12:46;;;;;;;;;;;;;;;;;;5051127;28;19955;-80
2022/08/28 00:15:11;;;;;;;;;;;;;;;;;;5042796;28;19991;-80
2022/08/28 00:17:36;;;;;;;;;;;;;;;;;;5044731;28;20348;-80
2022/08/28 00:20:01;;;;;;;;;;;;;;;;;;5039108;28;19905;-80
2022/08/28 00:22:26;;;;;;;;;;;;;;;;;;5039437;28;19909;-80
2022/08/28 00:24:52;;;;;;;;;;;;;;;;;;5036820;28;20329;-80
2022/08/28 00:30:00;;;;;;;;;;;;;;;;;;5048517;28;19915;-80
2022/08/28 00:32:25;;;;;;;;;;;;;;;;;;5043199;28;19905;-80
2022/08/28 00:34:51;;;;;;;;;;;;;;;;;;5047202;28;19909;-80
2022/08/28 00:37:16;;;;;;;;;;;;;;;;;;5051394;28;20249;-81
2022/08/28 00:39:41;;;;;;;;;;;;;;;;;;5044707;28;19932;-81
2022/08/28 00:42:06;;;;;;;;;;;;;;;;;;5043627;28;19955;-81
2022/08/28 00:44:31;;;;;;;;;;;;;;;;;;5037586;28;20004;-82
2022/08/28 00:46:56;;;;;;;;;;;;;;;;;;5043920;28;19928;-84
2022/08/28 00:49:21;;;;;;;;;;;;;;;;;;5049644;28;19909;-84
2022/08/28 00:52:07;;;;;;;;;;;;;;;;;;5052816;28;19927;-84
2022/08/28 00:54:32;;;;;;;;;;;;;;;;;;5041475;28;19915;-86
2022/08/28 00:56:58;;;;;;;;;;;;;;;;;;5042504;28;20440;-83
2022/08/28 00:59:23;;;;;;;;;;;;;;;;;;5044136;28;19905;-85
2022/08/28 01:01:48;;;;;;;;;;;;;;;;;;5041075;28;19909;-85
2022/08/28 01:04:15;;;;;;;;;;;;;;;;;;5037295;28;20272;-85
2022/08/28 01:06:40;;;;;;;;;;;;;;;;;;5039556;28;19923;-85
2022/08/28 01:09:05;;;;;;;;;;;;;;;;;;5046480;28;20023;-86
2022/08/28 01:11:31;;;;;;;;;;;;;;;;;;5041216;28;19916;-86
2022/08/28 01:13:56;;;;;;;;;;;;;;;;;;5051906;28;20388;-85
2022/08/28 01:16:21;;;;;;;;;;;;;;;;;;5041318;28;19940;-85
2022/08/28 01:18:46;;;;;;;;;;;;;;;;;;5043377;28;19916;-86
2022/08/28 01:21:12;;;;;;;;;;;;;;;;;;5040916;28;19936;-80
2022/08/28 01:23:37;;;;;;;;;;;;;;;;;;5053578;28;19978;-80
2022/08/28 01:26:02;;;;;;;;;;;;;;;;;;5041348;28;19987;-80
2022/08/28 01:28:27;;;;;;;;;;;;;;;;;;5041388;28;19912;-81
2022/08/28 01:30:52;;;;;;;;;;;;;;;;;;5041394;28;19905;-81
2022/08/28 01:33:18;;;;;;;;;;;;;;;;;;5049910;28;19963;-81
2022/08/28 01:35:43;;;;;;;;;;;;;;;;;;5044166;28;19905;-83
2022/08/28 01:38:08;;;;;;;;;;;;;;;;;;5038186;28;19912;-87
2022/08/28 01:40:34;;;;;;;;;;;;;;;;;;5044525;28;19914;-86
2022/08/28 01:43:00;;;;;;;;;;;;;;;;;;5051776;28;19942;-87
2022/08/28 01:45:25;;;;;;;;;;;;;;;;;;5048116;28;19912;-77
2022/08/28 01:47:51;;;;;;;;;;;;;;;;;;5051158;28;19923;-77
2022/08/28 01:50:16;;;;;;;;;;;;;;;;;;5042733;28;19909;-77
2022/08/28 01:52:41;;;;;;;;;;;;;;;;;;5051037;28;19904;-77
2022/08/28 01:55:06;;;;;;;;;;;;;;;;;;5050880;28;19995;-77
2022/08/28 01:57:31;;;;;;;;;;;;;;;;;;5034215;28;19967;-77
2022/08/28 01:59:56;;;;;;;;;;;;;;;;;;5036040;28;19975;-77
2022/08/28 02:02:21;;;;;;;;;;;;;;;;;;5036311;28;19909;-77
2022/08/28 02:04:47;;;;;;;;;;;;;;;;;;5047953;28;19912;-77
2022/08/28 02:07:13;;;;;;;;;;;;;;;;;;5050657;28;20351;-77
2022/08/28 02:09:38;;;;;;;;;;;;;;;;;;5038832;28;19909;-77
2022/08/28 02:12:03;;;;;;;;;;;;;;;;;;5044421;28;19905;-77
2022/08/28 02:14:28;;;;;;;;;;;;;;;;;;5049550;28;19915;-77
2022/08/28 02:16:54;;;;;;;;;;;;;;;;;;5051549;28;19920;-77
2022/08/28 02:19:20;;;;;;;;;;;;;;;;;;5049776;28;19908;-77
2022/08/28 02:21:45;;;;;;;;;;;;;;;;;;5046536;28;19949;-77
2022/08/28 02:24:10;;;;;;;;;;;;;;;;;;5043571;28;19931;-77
2022/08/28 02:26:35;;;;;;;;;;;;;;;;;;5037803;28;20368;-77
2022/08/28 02:29:00;;;;;;;;;;;;;;;;;;5039338;28;19944;-77
2022/08/28 02:31:25;;;;;;;;;;;;;;;;;;5036347;28;19909;-77
2022/08/28 02:33:50;;;;;;;;;;;;;;;;;;5040790;28;20034;-78
2022/08/28 02:36:16;;;;;;;;;;;;;;;;;;5039915;28;19911;-79
2022/08/28 02:38:41;;;;;;;;;;;;;;;;;;5043700;28;19920;-85
2022/08/28 02:41:06;;;;;;;;;;;;;;;;;;5033627;28;19905;-77
2022/08/28 02:43:31;;;;;;;;;;;;;;;;;;5047121;28;19955;-77
2022/08/28 02:45:57;;;;;;;;;;;;;;;;;;5044992;28;20271;-77
2022/08/28 02:48:22;;;;;;;;;;;;;;;;;;5046795;28;19909;-77
2022/08/28 02:50:48;;;;;;;;;;;;;;;;;;5038571;28;19912;-77
2022/08/28 02:53:13;;;;;;;;;;;;;;;;;;5036134;28;19920;-77
2022/08/28 02:55:38;;;;;;;;;;;;;;;;;;5037367;28;19980;-77
2022/08/28 02:58:05;;;;;;;;;;;;;;;;;;5036026;28;19936;-77
2022/08/28 03:00:30;;;;;;;;;;;;;;;;;;5033840;28;19916;-77
2022/08/28 03:02:55;;;;;;;;;;;;;;;;;;5049433;28;19909;-77
2022/08/28 03:05:20;;;;;;;;;;;;;;;;;;5052219;28;19913;-77
2022/08/28 03:07:45;;;;;;;;;;;;;;;;;;5038635;28;19909;-77
2022/08/28 03:10:11;;;;;;;;;;;;;;;;;;5038875;28;19951;-77
2022/08/28 03:12:37;;;;;;;;;;;;;;;;;;5046361;28;19908;-77
2022/08/28 03:15:02;;;;;;;;;;;;;;;;;;5053827;28;19915;-78
2022/08/28 03:17:27;;;;;;;;;;;;;;;;;;5038501;28;19913;-78
2022/08/28 03:19:52;;;;;;;;;;;;;;;;;;5041966;28;19905;-78
2022/08/28 03:23:24;;;;;;;;;;;;;;;;;;5041196;28;19909;-79
2022/08/28 03:25:02;;;;;;;;;;;;;;;;;;5041936;28;19987;-79
2022/08/28 03:27:27;;;;;;;;;;;;;;;;;;5038339;28;19909;-80
2022/08/28 03:29:52;;;;;;;;;;;;;;;;;;5043486;28;19905;-82
2022/08/28 03:32:18;;;;;;;;;;;;;;;;;;5046067;28;19905;-86
2022/08/28 03:34:43;;;;;;;;;;;;;;;;;;5040840;28;20054;-85
2022/08/28 03:37:08;;;;;;;;;;;;;;;;;;5038651;28;19928;-82
2022/08/28 03:39:34;;;;;;;;;;;;;;;;;;5047803;28;19912;-80
2022/08/28 03:41:59;;;;;;;;;;;;;;;;;;5046161;28;20321;-79
2022/08/28 03:44:24;;;;;;;;;;;;;;;;;;5050251;28;19908;-80
2022/08/28 03:46:50;;;;;;;;;;;;;;;;;;5042848;28;19905;-80
2022/08/28 03:49:15;;;;;;;;;;;;;;;;;;5047769;28;19913;-80
2022/08/28 03:51:40;;;;;;;;;;;;;;;;;;5043994;28;19911;-79
2022/08/28 03:54:05;;;;;;;;;;;;;;;;;;5043876;28;20329;-81
2022/08/28 03:56:31;;;;;;;;;;;;;;;;;;5048344;28;19920;-80
2022/08/28 03:58:56;;;;;;;;;;;;;;;;;;5040157;28;20333;-79
2022/08/28 04:01:21;;;;;;;;;;;;;;;;;;5045341;28;19971;-79
2022/08/28 04:03:46;;;;;;;;;;;;;;;;;;5050303;28;19909;-79
2022/08/28 04:06:11;;;;;;;;;;;;;;;;;;5040231;28;19927;-79
2022/08/28 04:08:37;;;;;;;;;;;;;;;;;;5048325;28;19948;-79
2022/08/28 04:11:02;;;;;;;;;;;;;;;;;;5037731;28;19909;-78
2022/08/28 04:13:27;;;;;;;;;;;;;;;;;;5044135;28;20003;-78
2022/08/28 04:15:52;;;;;;;;;;;;;;;;;;5044051;28;19905;-78
2022/08/28 04:18:17;;;;;;;;;;;;;;;;;;5043586;28;19921;-78
2022/08/28 04:20:42;;;;;;;;;;;;;;;;;;5042183;28;20268;-78
2022/08/28 04:23:08;;;;;;;;;;;;;;;;;;5049295;28;19916;-79
2022/08/28 04:25:34;;;;;;;;;;;;;;;;;;5051938;28;20398;-79
2022/08/28 04:27:59;;;;;;;;;;;;;;;;;;5054834;28;20340;-80
2022/08/28 04:30:24;;;;;;;;;;;;;;;;;;5042155;28;20345;-80
2022/08/28 04:32:50;;;;;;;;;;;;;;;;;;5043459;28;19909;-86
2022/08/28 04:35:15;;;;;;;;;;;;;;;;;;5038551;28;20331;-87
2022/08/28 04:37:40;;;;;;;;;;;;;;;;;;5053322;28;19912;-86
2022/08/28 04:40:07;;;;;;;;;;;;;;;;;;5042844;28;19909;-86
2022/08/28 04:42:32;;;;;;;;;;;;;;;;;;5042524;28;20451;-87
2022/08/28 04:44:58;;;;;;;;;;;;;;;;;;5038973;28;19958;-86
2022/08/28 04:47:23;;;;;;;;;;;;;;;;;;5043996;28;19908;-85
2022/08/28 04:49:49;;;;;;;;;;;;;;;;;;5050975;28;20043;-86
2022/08/28 04:52:14;;;;;;;;;;;;;;;;;;5054232;28;19927;-85
2022/08/28 04:54:39;;;;;;;;;;;;;;;;;;5045080;28;19909;-86
2022/08/28 04:57:04;;;;;;;;;;;;;;;;;;5047413;28;19912;-86
2022/08/28 04:59:29;;;;;;;;;;;;;;;;;;5045072;28;19940;-86
2022/08/28 05:01:54;;;;;;;;;;;;;;;;;;5043527;28;19970;-85
2022/08/28 05:04:19;;;;;;;;;;;;;;;;;;5044075;28;20412;-86
2022/08/28 05:06:45;;;;;;;;;;;;;;;;;;5050507;28;19912;-83
2022/08/28 05:09:10;;;;;;;;;;;;;;;;;;5051922;28;20303;-84
2022/08/28 05:11:35;;;;;;;;;;;;;;;;;;5045615;28;19915;-80
2022/08/28 05:14:00;;;;;;;;;;;;;;;;;;5044441;28;20364;-78
2022/08/28 05:16:25;;;;;;;;;;;;;;;;;;5047486;28;20351;-78
2022/08/28 05:18:50;;;;;;;;;;;;;;;;;;5049200;28;19916;-78
2022/08/28 05:21:19;;;;;;;;;;;;;;;;;;5044252;28;19916;-79
2022/08/28 05:23:44;;;;;;;;;;;;;;;;;;5047243;28;19928;-79
2022/08/28 05:26:09;;;;;;;;;;;;;;;;;;5035022;28;19905;-81
2022/08/28 05:28:34;;;;;;;;;;;;;;;;;;5039620;28;19944;-80
2022/08/28 05:30:59;;;;;;;;;;;;;;;;;;5049185;28;19915;-80
2022/08/28 05:33:25;;;;;;;;;;;;;;;;;;5047533;28;20325;-80
2022/08/28 05:35:50;;;;;;;;;;;;;;;;;;5035961;28;19928;-80
2022/08/28 05:38:15;;;;;;;;;;;;;;;;;;5040363;28;20355;-81
2022/08/28 05:40:41;;;;;;;;;;;;;;;;;;5037876;28;19908;-80
2022/08/28 05:43:06;;;;;;;;;;;;;;;;;;5051309;28;19920;-81
2022/08/28 05:45:31;;;;;;;;;;;;;;;;;;5044813;28;19916;-81
2022/08/28 05:47:57;;;;;;;;;;;;;;;;;;5047181;28;20352;-82
2022/08/28 05:50:22;;;;;;;;;;;;;;;;;;5045391;28;19905;-82
2022/08/28 05:52:47;;;;;;;;;;;;;;;;;;5046310;28;20306;-82
2022/08/28 05:55:12;;;;;;;;;;;;;;;;;;5036122;28;19905;-82
2022/08/28 05:57:37;;;;;;;;;;;;;;;;;;5051219;28;19912;-81
2022/08/28 06:00:02;;;;;;;;;;;;;;;;;;5042326;28;20011;-81
2022/08/28 06:02:27;;;;;;;;;;;;;;;;;;5039446;28;19912;-80
2022/08/28 06:04:53;;;;;;;;;;;;;;;;;;5035694;28;19912;-80
2022/08/28 06:07:18;;;;;;;;;;;;;;;;;;5037732;28;19909;-80
2022/08/28 06:09:43;;;;;;;;;;;;;;;;;;5040943;28;20264;-80
2022/08/28 06:12:08;;;;;;;;;;;;;;;;;;5042810;28;19904;-80
2022/08/28 06:14:33;;;;;;;;;;;;;;;;;;5039361;28;20004;-80
2022/08/28 06:16:59;;;;;;;;;;;;;;;;;;5046918;28;20348;-80
2022/08/28 06:19:24;;;;;;;;;;;;;;;;;;5039096;28;19928;-80
2022/08/28 06:21:51;;;;;;;;;;;;;;;;;;5038567;28;20283;-80
2022/08/28 06:24:16;;;;;;;;;;;;;;;;;;5037690;28;19921;-80
2022/08/28 06:26:41;;;;;;;;;;;;;;;;;;5041460;28;19979;-80
2022/08/28 06:29:06;;;;;;;;;;;;;;;;;;5034464;28;19913;-81
2022/08/28 06:31:32;;;;;;;;;;;;;;;;;;5039033;28;20012;-81
2022/08/28 06:33:57;;;;;;;;;;;;;;;;;;5038124;28;20012;-85
2022/08/28 06:36:22;;;;;;;;;;;;;;;;;;5040958;28;19909;-85
2022/08/28 06:38:47;;;;;;;;;;;;;;;;;;5039175;28;19920;-85
2022/08/28 06:41:14;;;;;;;;;;;;;;;;;;5037920;28;20361;-86
2022/08/28 06:43:39;;;;;;;;;;;;;;;;;;5047530;28;20054;-85
2022/08/28 06:46:04;;;;;;;;;;;;;;;;;;5053997;28;19936;-86
2022/08/28 06:48:30;;;;;;;;;;;;;;;;;;5044188;28;19951;-78
2022/08/28 06:50:55;;;;;;;;;;;;;;;;;;5039756;28;20463;-78
2022/08/28 06:53:21;;;;;;;;;;;;;;;;;;5047399;28;19952;-78
2022/08/28 06:55:46;;;;;;;;;;;;;;;;;;5050290;28;19912;-79
2022/08/28 06:58:11;;;;;;;;;;;;;;;;;;5046327;28;19916;-84
2022/08/28 07:00:36;;;;;;;;;;;;;;;;;;5042111;28;19905;-83
2022/08/28 07:03:01;;;;;;;;;;;;;;;;;;5041768;28;19927;-79
2022/08/28 07:05:26;;;;;;;;;;;;;;;;;;5055674;28;19908;-79
2022/08/28 07:07:51;;;;;;;;;;;;;;;;;;5053314;28;19909;-85
2022/08/28 07:10:17;;;;;;;;;;;;;;;;;;5040953;28;19912;-77
2022/08/28 07:12:42;;;;;;;;;;;;;;;;;;5044167;28;19908;-77
2022/08/28 07:15:07;;;;;;;;;;;;;;;;;;5042309;28;19912;-77
2022/08/28 07:17:32;;;;;;;;;;;;;;;;;;5041197;28;19924;-77
2022/08/28 07:19:57;;;;;;;;;;;;;;;;;;5036662;28;19913;-77
2022/08/28 07:22:22;;;;;;;;;;;;;;;;;;5038964;28;19905;-77
2022/08/28 07:24:48;;;;;;;;;;;;;;;;;;5036969;28;19944;-77
2022/08/28 07:27:13;;;;;;;;;;;;;;;;;;5044669;28;19991;-77
2022/08/28 07:29:38;;;;;;;;;;;;;;;;;;5043242;28;19920;-77
2022/08/28 07:32:03;;;;;;;;;;;;;;;;;;5044012;28;19919;-77
2022/08/28 07:34:28;;;;;;;;;;;;;;;;;;5047378;28;20374;-77
2022/08/28 07:36:54;;;;;;;;;;;;;;;;;;5047027;28;19904;-77
2022/08/28 07:39:20;;;;;;;;;;;;;;;;;;5043364;28;19940;-77
2022/08/28 07:41:45;;;;;;;;;;;;;;;;;;5048774;28;19971;-78
2022/08/28 07:46:54;;;;;;;;;;;;;;;;;;5034973;28;19959;-79
2022/08/28 07:49:19;;;;;;;;;;;;;;;;;;5053835;28;19913;-80
2022/08/28 07:51:44;;;;;;;;;;;;;;;;;;5055044;28;19930;-80
2022/08/28 07:54:09;;;;;;;;;;;;;;;;;;5051809;28;20004;-80
2022/08/28 07:56:39;;;;;;;;;;;;;;;;;;5051837;28;19916;-80
2022/08/28 07:59:04;;;;;;;;;;;;;;;;;;5051371;28;20284;-80
2022/08/28 08:01:30;;;;;;;;;;;;;;;;;;5054365;28;19905;-78
2022/08/28 08:03:56;;;;;;;;;;;;;;;;;;5042346;28;19909;-79
2022/08/28 08:06:21;;;;;;;;;;;;;;;;;;5051640;28;20348;-79
2022/08/28 08:08:46;;;;;;;;;;;;;;;;;;5047418;28;19916;-84
2022/08/28 08:11:12;;;;;;;;;;;;;;;;;;5049215;28;20006;-81
2022/08/28 08:13:38;;;;;;;;;;;;;;;;;;5047424;28;19908;-81
2022/08/28 08:16:03;;;;;;;;;;;;;;;;;;5036826;28;19958;-81
2022/08/28 08:18:28;;;;;;;;;;;;;;;;;;5042305;28;20036;-81
2022/08/28 08:20:53;;;;;;;;;;;;;;;;;;5046816;28;19911;-84
2022/08/28 08:23:18;;;;;;;;;;;;;;;;;;5048138;28;19963;-82
2022/08/28 08:25:43;;;;;;;;;;;;;;;;;;5041951;28;19931;-82
2022/08/28 08:28:08;;;;;;;;;;;;;;;;;;5042002;28;20264;-83
2022/08/28 08:30:34;;;;;;;;;;;;;;;;;;5054559;28;19983;-82
2022/08/28 08:32:59;;;;;;;;;;;;;;;;;;5048856;28;20000;-81
2022/08/28 08:35:24;;;;;;;;;;;;;;;;;;5052567;28;19904;-81
2022/08/28 08:37:49;;;;;;;;;;;;;;;;;;5037294;28;19971;-82
2022/08/28 08:40:17;;;;;;;;;;;;;;;;;;5042585;28;20379;-81
2022/08/28 08:42:43;;;;;;;;;;;;;;;;;;5045945;28;19904;-82
2022/08/28 08:45:08;;;;;;;;;;;;;;;;;;5042138;28;19905;-81
2022/08/28 08:47:33;;;;;;;;;;;;;;;;;;5043218;28;19932;-82
2022/08/28 08:49:58;;;;;;;;;;;;;;;;;;5037513;28;19944;-81
2022/08/28 08:52:23;;;;;;;;;;;;;;;;;;5050837;28;19962;-81
2022/08/28 08:54:49;;;;;;;;;;;;;;;;;;5050569;28;19971;-81
2022/08/28 08:57:14;;;;;;;;;;;;;;;;;;5047979;28;19913;-81
2022/08/28 08:59:39;;;;;;;;;;;;;;;;;;5041289;28;19945;-81
2022/08/28 09:02:04;;;;;;;;;;;;;;;;;;5045147;28;20428;-81
2022/08/28 09:04:30;;;;;;;;;;;;;;;;;;5041146;28;19919;-81
2022/08/28 09:06:55;;;;;;;;;;;;;;;;;;5043090;28;19955;-81
2022/08/28 09:09:20;;;;;;;;;;;;;;;;;;5036479;28;19913;-81
2022/08/28 09:11:45;;;;;;;;;;;;;;;;;;5051589;28;19966;-81
2022/08/28 09:14:10;;;;;;;;;;;;;;;;;;5049179;28;20357;-81
2022/08/28 09:16:35;;;;;;;;;;;;;;;;;;5048423;28;19913;-81
2022/08/28 09:19:00;;;;;;;;;;;;;;;;;;5040817;28;19919;-81
2022/08/28 09:21:26;;;;;;;;;;;;;;;;;;5039618;28;20028;-81
2022/08/28 09:23:51;;;;;;;;;;;;;;;;;;5042104;28;19966;-81
2022/08/28 09:26:16;;;;;;;;;;;;;;;;;;5049319;28;19905;-81
2022/08/28 09:28:43;;;;;;;;;;;;;;;;;;5047612;28;19909;-81
2022/08/28 09:31:08;;;;;;;;;;;;;;;;;;5052218;28;19996;-81
2022/08/28 09:33:33;;;;;;;;;;;;;;;;;;5040115;28;19947;-82
2022/08/28 09:35:59;;;;;;;;;;;;;;;;;;5037493;28;20414;-81
2022/08/28 09:38:24;;;;;;;;;;;;;;;;;;5035336;28;19920;-81
2022/08/28 09:43:33;;;;;;;;;;;;;;;;;;5039751;28;20011;-82
2022/08/28 09:45:58;;;;;;;;;;;;;;;;;;5046363;28;20360;-81
2022/08/28 09:48:23;;;;;;;;;;;;;;;;;;5036874;28;20372;-81
2022/08/28 09:50:48;;;;;;;;;;;;;;;;;;5042217;28;19905;-81
2022/08/28 09:53:13;;;;;;;;;;;;;;;;;;5042077;28;19917;-81
2022/08/28 09:55:38;;;;;;;;;;;;;;;;;;5040393;28;19985;-81
2022/08/28 09:58:04;;;;;;;;;;;;;;;;;;5047525;28;19920;-82
2022/08/28 10:00:29;;;;;;;;;;;;;;;;;;5043729;28;19971;-81
2022/08/28 10:02:54;;;;;;;;;;;;;;;;;;5049027;28;19911;-81
2022/08/28 10:05:19;;;;;;;;;;;;;;;;;;5045053;28;19950;-81
2022/08/28 10:07:45;;;;;;;;;;;;;;;;;;5043149;28;19916;-81
2022/08/28 10:10:10;;;;;;;;;;;;;;;;;;5034878;28;19951;-81
2022/08/28 10:12:35;;;;;;;;;;;;;;;;;;5036548;28;19904;-82
2022/08/28 10:15:00;;;;;;;;;;;;;;;;;;5046842;28;19912;-81
2022/08/28 10:17:25;;;;;;;;;;;;;;;;;;5035765;28;20364;-81
2022/08/28 10:19:51;;;;;;;;;;;;;;;;;;5043953;28;19912;-81
2022/08/28 10:22:16;;;;;;;;;;;;;;;;;;5048010;28;20362;-81
2022/08/28 10:24:42;;;;;;;;;;;;;;;;;;5049916;28;19917;-81
2022/08/28 10:27:07;;;;;;;;;;;;;;;;;;5047418;28;20318;-81
2022/08/28 10:29:32;;;;;;;;;;;;;;;;;;5045202;28;20387;-82
2022/08/28 10:31:57;;;;;;;;;;;;;;;;;;5049858;28;20413;-81
2022/08/28 10:34:22;;;;;;;;;;;;;;;;;;5039124;28;19968;-81
2022/08/28 10:36:47;;;;;;;;;;;;;;;;;;5042429;28;19909;-81
2022/08/28 10:39:13;;;;;;;;;;;;;;;;;;5049640;28;19980;-81
2022/08/28 10:41:38;;;;;;;;;;;;;;;;;;5051374;28;20003;-81
2022/08/28 10:44:03;;;;;;;;;;;;;;;;;;5049629;28;19912;-81
2022/08/28 10:46:28;;;;;;;;;;;;;;;;;;5044002;28;19999;-81
2022/08/28 10:48:53;;;;;;;;;;;;;;;;;;5047040;28;19904;-81
2022/08/28 10:51:18;;;;;;;;;;;;;;;;;;5042988;28;19916;-81
2022/08/28 10:53:43;;;;;;;;;;;;;;;;;;5039374;28;19904;-81
2022/08/28 10:56:09;;;;;;;;;;;;;;;;;;5043382;28;19905;-81
2022/08/28 10:58:34;;;;;;;;;;;;;;;;;;5039052;28;19924;-81
2022/08/28 11:01:00;;;;;;;;;;;;;;;;;;5037636;28;20000;-81
2022/08/28 11:03:25;;;;;;;;;;;;;;;;;;5042185;28;20288;-81
2022/08/28 11:05:50;;;;;;;;;;;;;;;;;;5044128;28;19937;-81
2022/08/28 11:08:15;;;;;;;;;;;;;;;;;;5043143;28;20038;-81
2022/08/28 11:10:40;;;;;;;;;;;;;;;;;;5039389;28;19912;-81
2022/08/28 11:13:05;;;;;;;;;;;;;;;;;;5046523;28;20003;-81
2022/08/28 11:15:30;;;;;;;;;;;;;;;;;;5045598;28;19904;-81
2022/08/28 11:17:56;;;;;;;;;;;;;;;;;;5042087;28;20015;-81
2022/08/28 11:20:23;;;;;;;;;;;;;;;;;;5039984;28;19955;-81
2022/08/28 11:22:48;;;;;;;;;;;;;;;;;;5037984;28;19996;-80
2022/08/28 11:25:13;;;;;;;;;;;;;;;;;;5034031;28;19996;-81
2022/08/28 11:27:39;;;;;;;;;;;;;;;;;;5040045;28;19915;-81
2022/08/28 11:30:04;;;;;;;;;;;;;;;;;;5041499;28;19912;-81
2022/08/28 11:32:29;;;;;;;;;;;;;;;;;;5040193;28;20356;-81
2022/08/28 11:34:54;;;;;;;;;;;;;;;;;;5044114;28;19909;-81
2022/08/28 11:37:20;;;;;;;;;;;;;;;;;;5052206;28;19913;-81
2022/08/28 11:39:45;;;;;;;;;;;;;;;;;;5040976;28;19912;-81
2022/08/28 11:42:10;;;;;;;;;;;;;;;;;;5048896;28;19913;-80
2022/08/28 11:44:35;;;;;;;;;;;;;;;;;;5040264;28;20268;-81
2022/08/28 11:47:00;;;;;;;;;;;;;;;;;;5048256;28;19927;-81
2022/08/28 11:49:25;;;;;;;;;;;;;;;;;;5044512;28;19913;-81
2022/08/28 11:51:50;;;;;;;;;;;;;;;;;;5046895;28;19904;-81
2022/08/28 11:54:16;;;;;;;;;;;;;;;;;;5048853;28;20360;-81
2022/08/28 11:56:41;;;;;;;;;;;;;;;;;;5048846;28;20377;-81
2022/08/28 11:59:06;;;;;;;;;;;;;;;;;;5037739;28;19916;-81
2022/08/28 12:01:31;;;;;;;;;;;;;;;;;;5048771;28;19905;-81
2022/08/28 12:03:56;;;;;;;;;;;;;;;;;;5042526;28;19924;-81
2022/08/28 12:06:22;;;;;;;;;;;;;;;;;;5046514;28;19947;-81
2022/08/28 12:08:47;;;;;;;;;;;;;;;;;;5042778;28;19905;-81
2022/08/28 12:11:12;;;;;;;;;;;;;;;;;;5049785;28;20003;-81
2022/08/28 12:13:37;;;;;;;;;;;;;;;;;;5043338;28;19933;-81
2022/08/28 12:16:03;;;;;;;;;;;;;;;;;;5052075;28;20347;-81
2022/08/28 12:18:28;;;;;;;;;;;;;;;;;;5053676;28;19970;-81
2022/08/28 12:20:53;;;;;;;;;;;;;;;;;;5047316;28;19916;-81
2022/08/28 12:23:18;;;;;;;;;;;;;;;;;;5038235;28;19917;-81
2022/08/28 12:25:44;;;;;;;;;;;;;;;;;;5047158;28;19916;-81
2022/08/28 12:28:09;;;;;;;;;;;;;;;;;;5039858;28;19973;-81
2022/08/28 12:30:34;;;;;;;;;;;;;;;;;;5050570;28;19905;-81
2022/08/28 12:32:59;;;;;;;;;;;;;;;;;;5048305;28;19909;-81
2022/08/28 12:35:24;;;;;;;;;;;;;;;;;;5053918;28;19987;-81
2022/08/28 12:37:49;;;;;;;;;;;;;;;;;;5045007;28;19931;-81
2022/08/28 12:40:14;;;;;;;;;;;;;;;;;;5044326;28;19913;-81
2022/08/28 12:42:39;;;;;;;;;;;;;;;;;;5044958;28;19904;-81
2022/08/28 12:45:05;;;;;;;;;;;;;;;;;;5050202;28;19905;-81
2022/08/28 12:47:30;;;;;;;;;;;;;;;;;;5050599;28;20004;-81
2022/08/28 12:49:55;;;;;;;;;;;;;;;;;;5051293;28;20348;-81
2022/08/28 12:52:20;;;;;;;;;;;;;;;;;;5045018;28;19948;-81
2022/08/28 12:54:45;;;;;;;;;;;;;;;;;;5044896;28;19913;-81
2022/08/28 12:57:10;;;;;;;;;;;;;;;;;;5042491;28;19970;-81
2022/08/28 12:59:36;;;;;;;;;;;;;;;;;;5038406;28;20040;-81
2022/08/28 13:02:01;;;;;;;;;;;;;;;;;;5043889;28;19974;-81
2022/08/28 13:04:26;;;;;;;;;;;;;;;;;;5049185;28;19915;-81
2022/08/28 13:06:51;;;;;;;;;;;;;;;;;;5048659;28;19904;-81
2022/08/28 13:09:16;;;;;;;;;;;;;;;;;;5053190;28;19922;-81
2022/08/28 13:11:41;;;;;;;;;;;;;;;;;;5037937;28;19966;-81
2022/08/28 13:14:07;;;;;;;;;;;;;;;;;;5038514;28;19916;-81
2022/08/28 13:16:32;;;;;;;;;;;;;;;;;;5041248;28;19909;-81
2022/08/28 13:18:57;;;;;;;;;;;;;;;;;;5038912;28;19913;-81
2022/08/28 13:21:22;;;;;;;;;;;;;;;;;;5039293;28;19960;-81
2022/08/28 13:23:49;;;;;;;;;;;;;;;;;;5037338;28;19917;-81
2022/08/28 13:26:14;;;;;;;;;;;;;;;;;;5037312;28;19912;-81
2022/08/28 13:28:39;;;;;;;;;;;;;;;;;;5038767;28;19905;-81
2022/08/28 13:31:04;;;;;;;;;;;;;;;;;;5042417;28;20003;-81
2022/08/28 13:33:30;;;;;;;;;;;;;;;;;;5041979;28;19905;-81
2022/08/28 13:35:55;;;;;;;;;;;;;;;;;;5041550;28;19905;-81
2022/08/28 13:38:20;;;;;;;;;;;;;;;;;;5036079;28;20360;-81
2022/08/28 13:40:45;;;;;;;;;;;;;;;;;;5041297;28;19909;-81
2022/08/28 13:43:10;;;;;;;;;;;;;;;;;;5041771;28;19909;-81
2022/08/28 13:45:36;;;;;;;;;;;;;;;;;;5043763;28;20396;-81
2022/08/28 13:48:01;;;;;;;;;;;;;;;;;;5051580;28;19912;-81
2022/08/28 13:50:26;;;;;;;;;;;;;;;;;;5050194;28;19908;-81
2022/08/28 13:52:51;;;;;;;;;;;;;;;;;;5051929;28;19923;-81
2022/08/28 13:55:16;;;;;;;;;;;;;;;;;;5037119;28;19909;-81
2022/08/28 13:57:41;;;;;;;;;;;;;;;;;;5037044;28;20257;-81
2022/08/28 14:00:07;;;;;;;;;;;;;;;;;;5042019;28;20311;-81
2022/08/28 14:05:15;;;;;;;;;;;;;;;;;;5024747;28;20415;-81
2022/08/28 14:07:40;;;;;;;;;;;;;;;;;;5035648;28;19910;-82
2022/08/28 14:10:06;;;;;;;;;;;;;;;;;;5036353;28;19905;-81
2022/08/28 14:12:31;;;;;;;;;;;;;;;;;;5041537;28;19958;-81
2022/08/28 14:14:56;;;;;;;;;;;;;;;;;;5050689;28;19908;-81
2022/08/28 14:17:21;;;;;;;;;;;;;;;;;;5046760;28;19916;-81
2022/08/28 14:19:46;;;;;;;;;;;;;;;;;;5036028;28;19909;-81
2022/08/28 14:22:12;;;;;;;;;;;;;;;;;;5039966;28;19917;-81
2022/08/28 14:24:37;;;;;;;;;;;;;;;;;;5036185;28;20007;-81
2022/08/28 14:27:02;;;;;;;;;;;;;;;;;;5039598;28;19912;-81
2022/08/28 14:29:27;;;;;;;;;;;;;;;;;;5038637;28;19909;-81
2022/08/28 14:31:52;;;;;;;;;;;;;;;;;;5047160;28;19908;-81
2022/08/28 14:34:18;;;;;;;;;;;;;;;;;;5042164;28;20008;-81
2022/08/28 14:36:43;;;;;;;;;;;;;;;;;;5040432;28;19909;-81
2022/08/28 14:39:08;;;;;;;;;;;;;;;;;;5034412;28;19913;-81
2022/08/28 14:41:33;;;;;;;;;;;;;;;;;;5037193;28;19909;-81
2022/08/28 14:43:58;;;;;;;;;;;;;;;;;;5042563;28;19909;-81
2022/08/28 14:46:23;;;;;;;;;;;;;;;;;;5035926;28;19912;-81
2022/08/28 14:48:48;;;;;;;;;;;;;;;;;;5034967;28;19905;-81
2022/08/28 14:51:14;;;;;;;;;;;;;;;;;;5051266;28;19943;-81
2022/08/28 14:53:39;;;;;;;;;;;;;;;;;;5040168;28;19905;-81
2022/08/28 14:56:04;;;;;;;;;;;;;;;;;;5036003;28;19905;-81
2022/08/28 14:58:31;;;;;;;;;;;;;;;;;;5046792;28;19917;-81
2022/08/28 15:00:56;;;;;;;;;;;;;;;;;;5050820;28;19909;-81
2022/08/28 15:03:21;;;;;;;;;;;;;;;;;;5053587;28;20026;-81
2022/08/28 15:05:46;;;;;;;;;;;;;;;;;;5040315;28;19909;-81
2022/08/28 15:08:11;;;;;;;;;;;;;;;;;;5043488;28;19909;-81
2022/08/28 15:10:37;;;;;;;;;;;;;;;;;;5051438;28;19995;-81
2022/08/28 15:13:02;;;;;;;;;;;;;;;;;;5041463;28;19971;-81
2022/08/28 15:15:27;;;;;;;;;;;;;;;;;;5046061;28;19911;-81
2022/08/28 15:17:52;;;;;;;;;;;;;;;;;;5048696;28;20310;-81
2022/08/28 15:20:17;;;;;;;;;;;;;;;;;;5054263;28;19909;-81
2022/08/28 15:22:42;;;;;;;;;;;;;;;;;;5048415;28;20279;-81
2022/08/28 15:25:08;;;;;;;;;;;;;;;;;;5054683;28;20014;-81
2022/08/28 15:27:33;;;;;;;;;;;;;;;;;;5055141;28;19909;-81
2022/08/28 15:29:58;;;;;;;;;;;;;;;;;;5047848;28;19912;-81
2022/08/28 15:32:25;;;;;;;;;;;;;;;;;;5050896;28;19921;-81
2022/08/28 15:34:51;;;;;;;;;;;;;;;;;;5056057;28;20275;-81
2022/08/28 15:37:16;;;;;;;;;;;;;;;;;;5042936;28;19909;-81
2022/08/28 15:42:25;;;;;;;;;;;;;;;;;;5045487;28;19915;-81
2022/08/28 15:44:50;;;;;;;;;;;;;;;;;;5037130;28;19996;-81
2022/08/28 15:47:15;;;;;;;;;;;;;;;;;;5049541;28;19913;-81
2022/08/28 15:49:40;;;;;;;;;;;;;;;;;;5048929;28;19908;-81
2022/08/28 15:52:06;;;;;;;;;;;;;;;;;;5042939;28;19988;-81
2022/08/28 15:54:31;;;;;;;;;;;;;;;;;;5044270;28;19909;-82
2022/08/28 15:56:56;;;;;;;;;;;;;;;;;;5047008;28;19954;-81
2022/08/28 15:59:21;;;;;;;;;;;;;;;;;;5040733;28;19913;-81
2022/08/28 16:01:46;;;;;;;;;;;;;;;;;;5040453;28;19909;-81
2022/08/28 16:04:12;;;;;;;;;;;;;;;;;;5041408;28;19905;-81
2022/08/28 16:06:37;;;;;;;;;;;;;;;;;;5042854;28;20253;-81
2022/08/28 16:09:02;;;;;;;;;;;;;;;;;;5039266;28;19915;-81
2022/08/28 16:11:27;;;;;;;;;;;;;;;;;;5042700;28;19909;-81
2022/08/28 16:13:53;;;;;;;;;;;;;;;;;;5052404;28;20256;-81
2022/08/28 16:16:18;;;;;;;;;;;;;;;;;;5050746;28;19909;-81
2022/08/28 16:18:43;;;;;;;;;;;;;;;;;;5051168;28;20316;-81
2022/08/28 16:21:08;;;;;;;;;;;;;;;;;;5048912;28;19995;-81
2022/08/28 16:23:33;;;;;;;;;;;;;;;;;;5047618;28;19917;-81
2022/08/28 16:25:58;;;;;;;;;;;;;;;;;;5048002;28;19905;-81
2022/08/28 16:28:24;;;;;;;;;;;;;;;;;;5045180;28;20411;-81
2022/08/28 16:30:50;;;;;;;;;;;;;;;;;;5051280;28;19908;-81
2022/08/28 16:33:18;;;;;;;;;;;;;;;;;;5049626;28;20260;-81
2022/08/28 16:35:44;;;;;;;;;;;;;;;;;;5052949;28;19912;-81
2022/08/28 16:38:09;;;;;;;;;;;;;;;;;;5045859;28;19917;-81
2022/08/28 16:40:35;;;;;;;;;;;;;;;;;;5040437;28;19947;-81
2022/08/28 16:43:00;;;;;;;;;;;;;;;;;;5037857;28;20376;-81
2022/08/28 16:45:25;;;;;;;;;;;;;;;;;;5044877;28;19918;-81